createdAt,value
2019-06-26T00:00:10.316Z,16.51
2019-06-26T00:02:39.541Z,16.49
2019-06-26T00:05:08.874Z,16.49
2019-06-26T00:07:38.227Z,16.51
2019-06-26T00:10:07.969Z,16.54
2019-06-26T00:12:37.338Z,16.58
2019-06-26T00:15:07.234Z,16.59
2019-06-26T00:17:36.449Z,16.57
2019-06-26T00:20:07.375Z,16.55
2019-06-26T00:22:36.607Z,16.54
2019-06-26T00:25:06.105Z,16.53
2019-06-26T00:27:35.296Z,16.53
2019-06-26T00:30:05.293Z,16.55
2019-06-26T00:32:34.497Z,16.56
2019-06-26T00:35:03.724Z,16.52
2019-06-26T00:37:32.986Z,16.52
2019-06-26T00:40:02.296Z,16.52
2019-06-26T00:42:31.653Z,16.51
2019-06-26T00:45:00.896Z,16.48
2019-06-26T00:47:30.090Z,16.47
2019-06-26T00:49:59.294Z,16.48
2019-06-26T00:52:28.547Z,16.52
2019-06-26T00:54:57.733Z,16.54
2019-06-26T00:57:26.939Z,16.58
2019-06-26T00:59:56.163Z,16.57
2019-06-26T01:02:25.427Z,16.56
2019-06-26T01:04:56.640Z,16.55
2019-06-26T01:07:25.909Z,16.54
2019-06-26T01:09:55.108Z,16.53
2019-06-26T01:12:24.405Z,16.50
2019-06-26T01:14:53.800Z,16.47
2019-06-26T01:17:23.084Z,16.47
2019-06-26T01:19:52.358Z,16.45
2019-06-26T01:22:21.613Z,16.39
2019-06-26T01:24:51.044Z,16.33
2019-06-26T01:27:20.259Z,16.31
2019-06-26T01:29:49.800Z,16.31
2019-06-26T01:32:19.000Z,16.31
2019-06-26T01:34:48.188Z,16.27
2019-06-26T01:37:17.425Z,16.24
2019-06-26T01:39:46.607Z,16.26
2019-06-26T01:42:16.037Z,16.25
2019-06-26T01:44:45.662Z,16.24
2019-06-26T01:47:16.117Z,16.23
2019-06-26T01:49:45.317Z,16.24
2019-06-26T01:52:14.557Z,16.22
2019-06-26T01:54:43.756Z,16.24
2019-06-26T01:57:12.954Z,16.27
2019-06-26T01:59:42.236Z,16.30
2019-06-26T02:02:11.420Z,16.31
2019-06-26T02:04:40.615Z,16.29
2019-06-26T02:07:10.165Z,16.32
2019-06-26T02:09:39.378Z,16.34
2019-06-26T02:12:08.599Z,16.34
2019-06-26T02:14:38.228Z,16.31
2019-06-26T02:17:07.765Z,16.31
2019-06-26T02:19:36.971Z,16.32
2019-06-26T02:22:06.442Z,16.33
2019-06-26T02:24:35.654Z,16.32
2019-06-26T02:27:04.832Z,16.31
2019-06-26T02:29:34.082Z,16.28
2019-06-26T02:32:03.310Z,16.25
2019-06-26T02:34:32.497Z,16.24
2019-06-26T02:37:01.730Z,16.23
2019-06-26T02:39:30.934Z,16.24
2019-06-26T02:42:00.155Z,16.22
2019-06-26T02:44:47.120Z,16.22
2019-06-26T02:47:18.354Z,16.20
2019-06-26T02:49:31.703Z,16.22
2019-06-26T02:52:01.018Z,16.24
2019-06-26T02:54:30.209Z,16.24
2019-06-26T02:56:59.417Z,16.26
2019-06-26T02:59:28.738Z,16.24
2019-06-26T03:01:57.961Z,16.18
2019-06-26T03:04:27.162Z,16.17
2019-06-26T03:06:56.503Z,16.16
2019-06-26T03:09:25.694Z,16.14
2019-06-26T03:11:54.890Z,16.16
2019-06-26T03:14:24.177Z,16.22
2019-06-26T03:16:53.787Z,16.22
2019-06-26T03:19:23.030Z,16.20
2019-06-26T03:21:52.273Z,16.17
2019-06-26T03:24:21.486Z,16.17
2019-06-26T03:26:50.765Z,16.17
2019-06-26T03:29:20.005Z,16.20
2019-06-26T03:31:49.263Z,16.24
2019-06-26T03:34:18.501Z,16.30
2019-06-26T03:36:50.180Z,16.33
2019-06-26T03:39:20.419Z,16.33
2019-06-26T03:41:49.839Z,16.33
2019-06-26T03:44:19.095Z,16.33
2019-06-26T03:46:48.610Z,16.34
2019-06-26T03:49:17.843Z,16.30
2019-06-26T03:51:47.067Z,16.30
2019-06-26T03:54:16.519Z,16.29
2019-06-26T03:56:45.717Z,16.28
2019-06-26T03:59:14.944Z,16.29
2019-06-26T04:01:44.137Z,16.29
2019-06-26T04:04:13.346Z,16.31
2019-06-26T04:06:42.676Z,16.35
2019-06-26T04:09:11.865Z,16.37
2019-06-26T04:11:41.435Z,16.38
2019-06-26T04:14:10.743Z,16.38
2019-06-26T04:16:39.952Z,16.38
2019-06-26T04:19:09.335Z,16.37
2019-06-26T04:21:38.560Z,16.38
2019-06-26T04:24:08.103Z,16.39
2019-06-26T04:26:37.334Z,16.37
2019-06-26T04:29:06.605Z,16.37
2019-06-26T04:31:36.118Z,16.40
2019-06-26T04:34:05.463Z,16.38
2019-06-26T04:36:34.685Z,16.34
2019-06-26T04:39:05.826Z,16.30
2019-06-26T04:41:37.341Z,16.35
2019-06-26T04:44:06.576Z,16.36
2019-06-26T04:46:35.774Z,16.37
2019-06-26T04:49:04.972Z,16.37
2019-06-26T04:51:34.225Z,16.34
2019-06-26T04:54:03.402Z,16.33
2019-06-26T04:56:32.604Z,16.36
2019-06-26T04:59:03.273Z,16.38
2019-06-26T05:01:32.520Z,16.37
2019-06-26T05:04:01.754Z,16.39
2019-06-26T05:06:31.188Z,16.39
2019-06-26T05:09:00.398Z,16.37
2019-06-26T05:11:29.618Z,16.35
2019-06-26T05:13:58.886Z,16.31
2019-06-26T05:16:28.051Z,16.29
2019-06-26T05:18:57.280Z,16.22
2019-06-26T05:21:26.665Z,16.20
2019-06-26T05:23:55.840Z,16.17
2019-06-26T05:26:25.046Z,16.16
2019-06-26T05:28:54.310Z,16.15
2019-06-26T05:31:23.597Z,16.14
2019-06-26T05:33:52.806Z,16.15
2019-06-26T05:36:22.094Z,16.19
2019-06-26T05:38:51.295Z,16.22
2019-06-26T05:41:20.946Z,16.27
2019-06-26T05:43:50.511Z,16.30
2019-06-26T05:46:30.630Z,16.34
2019-06-26T05:48:52.442Z,16.38
2019-06-26T05:51:21.667Z,16.39
2019-06-26T05:53:51.040Z,16.37
2019-06-26T05:56:20.331Z,15.67
2019-06-26T05:58:49.685Z,16.43
2019-06-26T06:01:19.257Z,16.44
2019-06-26T06:03:48.497Z,16.44
2019-06-26T06:06:17.747Z,16.48
2019-06-26T06:08:46.936Z,16.49
2019-06-26T06:11:16.158Z,16.52
2019-06-26T06:13:45.817Z,16.56
2019-06-26T06:16:15.053Z,16.62
2019-06-26T06:18:44.238Z,16.66
2019-06-26T06:21:13.488Z,16.71
2019-06-26T06:23:45.220Z,16.76
2019-06-26T06:26:14.406Z,16.77
2019-06-26T06:28:43.635Z,16.76
2019-06-26T06:31:12.897Z,16.73
2019-06-26T06:33:42.085Z,16.69
2019-06-26T06:36:11.607Z,16.70
2019-06-26T06:38:40.800Z,16.69
2019-06-26T06:41:10.001Z,16.66
2019-06-26T06:43:39.453Z,16.63
2019-06-26T06:46:08.660Z,16.59
2019-06-26T06:48:37.867Z,16.49
2019-06-26T06:51:07.106Z,16.42
2019-06-26T06:53:37.299Z,16.37
2019-06-26T06:56:06.491Z,16.32
2019-06-26T06:58:35.743Z,16.29
2019-06-26T07:01:05.055Z,16.31
2019-06-26T07:03:34.266Z,16.36
2019-06-26T07:06:03.513Z,16.43
2019-06-26T07:08:32.727Z,16.49
2019-06-26T07:11:01.942Z,16.55
2019-06-26T07:13:31.417Z,16.58
2019-06-26T07:16:00.621Z,16.62
2019-06-26T07:18:29.828Z,16.65
2019-06-26T07:20:59.093Z,16.69
2019-06-26T07:23:28.320Z,16.73
2019-06-26T07:25:57.621Z,16.79
2019-06-26T07:28:26.896Z,16.83
2019-06-26T07:30:56.099Z,16.88
2019-06-26T07:33:27.598Z,16.96
2019-06-26T07:35:56.982Z,16.96
2019-06-26T07:38:26.174Z,16.98
2019-06-26T07:40:55.435Z,16.92
2019-06-26T07:43:24.716Z,16.85
2019-06-26T07:45:54.108Z,16.85
2019-06-26T07:48:23.302Z,16.80
2019-06-26T07:50:52.832Z,16.73
2019-06-26T07:53:22.074Z,16.68
2019-06-26T07:55:51.273Z,16.67
2019-06-26T07:58:20.613Z,16.61
2019-06-26T08:00:49.798Z,16.54
2019-06-26T08:03:18.998Z,16.52
2019-06-26T08:05:48.423Z,16.51
2019-06-26T08:08:17.680Z,16.49
2019-06-26T08:10:46.868Z,16.45
2019-06-26T08:13:16.346Z,16.45
2019-06-26T08:15:45.536Z,16.52
2019-06-26T08:18:14.725Z,16.59
2019-06-26T08:20:55.391Z,16.66
2019-06-26T08:23:15.396Z,16.71
2019-06-26T08:25:44.836Z,16.74
2019-06-26T08:28:14.260Z,16.76
2019-06-26T08:30:43.519Z,16.78
2019-06-26T08:33:12.729Z,16.77
2019-06-26T08:35:41.997Z,16.76
2019-06-26T08:38:15.338Z,16.73
2019-06-26T08:40:42.113Z,16.70
2019-06-26T08:43:11.563Z,16.68
2019-06-26T08:45:40.788Z,16.68
2019-06-26T08:48:19.334Z,16.64
2019-06-26T08:50:41.069Z,16.65
2019-06-26T08:53:10.455Z,16.69
2019-06-26T08:55:39.845Z,16.71
2019-06-26T08:58:09.192Z,16.74
2019-06-26T09:00:38.440Z,16.75
2019-06-26T09:03:07.660Z,16.75
2019-06-26T09:05:47.584Z,16.77
2019-06-26T09:08:07.922Z,16.76
2019-06-26T09:10:37.257Z,16.74
2019-06-26T09:13:06.518Z,16.73
2019-06-26T09:15:35.712Z,16.72
2019-06-26T09:18:04.929Z,16.72
2019-06-26T09:20:38.764Z,16.76
2019-06-26T09:23:08.542Z,16.83
2019-06-26T09:25:37.878Z,16.87
2019-06-26T09:28:07.201Z,16.88
2019-06-26T09:30:36.611Z,16.90
2019-06-26T09:33:06.104Z,16.94
2019-06-26T09:35:35.587Z,16.96
2019-06-26T09:38:04.903Z,16.96
2019-06-26T09:40:34.102Z,16.97
2019-06-26T09:43:03.482Z,16.98
2019-06-26T09:45:32.685Z,16.99
2019-06-26T09:48:01.926Z,17.02
2019-06-26T09:50:31.269Z,17.03
2019-06-26T09:53:00.485Z,17.01
2019-06-26T09:55:29.665Z,16.98
2019-06-26T09:57:58.893Z,16.94
2019-06-26T10:00:28.359Z,16.94
2019-06-26T10:02:57.569Z,16.93
2019-06-26T10:05:26.912Z,16.93
2019-06-26T10:07:56.112Z,16.96
2019-06-26T10:10:25.331Z,17.03
2019-06-26T10:12:54.633Z,17.09
2019-06-26T10:15:23.885Z,17.17
2019-06-26T10:17:53.111Z,17.23
2019-06-26T10:20:22.401Z,17.27
2019-06-26T10:22:51.581Z,17.27
2019-06-26T10:25:21.019Z,17.27
2019-06-26T10:27:50.358Z,17.22
2019-06-26T10:30:21.206Z,17.22
2019-06-26T10:32:50.608Z,17.24
2019-06-26T10:35:19.951Z,17.23
2019-06-26T10:37:49.132Z,17.26
2019-06-26T10:40:18.856Z,17.22
2019-06-26T10:42:48.100Z,17.21
2019-06-26T10:45:18.507Z,17.19
2019-06-26T10:47:47.758Z,17.17
2019-06-26T10:50:17.907Z,17.18
2019-06-26T10:52:47.223Z,17.23
2019-06-26T10:55:16.424Z,17.28
2019-06-26T10:57:45.679Z,17.31
2019-06-26T11:00:16.235Z,17.32
2019-06-26T11:02:45.463Z,17.34
2019-06-26T11:05:16.175Z,17.37
2019-06-26T11:07:45.846Z,17.36
2019-06-26T11:10:15.524Z,17.34
2019-06-26T11:12:48.835Z,17.35
2019-06-26T11:15:16.386Z,17.38
2019-06-26T11:17:45.735Z,17.41
2019-06-26T11:20:15.253Z,17.40
2019-06-26T11:22:44.575Z,17.39
2019-06-26T11:25:13.905Z,17.39
2019-06-26T11:27:43.213Z,17.33
2019-06-26T11:30:13.359Z,17.31
2019-06-26T11:32:42.565Z,17.33
2019-06-26T11:35:13.429Z,17.37
2019-06-26T11:37:42.801Z,17.40
2019-06-26T11:40:12.489Z,17.44
2019-06-26T11:42:41.717Z,17.48
2019-06-26T11:45:12.083Z,17.48
2019-06-26T11:47:41.412Z,17.49
2019-06-26T11:50:11.823Z,17.55
2019-06-26T11:52:42.031Z,17.58
2019-06-26T11:55:12.048Z,17.63
2019-06-26T11:57:41.401Z,17.63
2019-06-26T12:00:11.943Z,17.62
2019-06-26T12:02:41.160Z,17.62
2019-06-26T12:05:11.943Z,17.66
2019-06-26T12:07:41.417Z,17.73
2019-06-26T12:10:11.011Z,17.71
2019-06-26T12:12:40.588Z,17.72
2019-06-26T12:15:10.948Z,17.79
2019-06-26T12:17:40.231Z,17.78
2019-06-26T12:20:18.463Z,17.74
2019-06-26T12:22:41.153Z,17.77
2019-06-26T12:25:10.762Z,17.75
2019-06-26T12:27:40.025Z,17.71
2019-06-26T12:30:09.982Z,17.68
2019-06-26T12:32:42.423Z,17.65
2019-06-26T12:35:11.121Z,17.63
2019-06-26T12:37:40.533Z,17.61
2019-06-26T12:40:10.502Z,17.64
2019-06-26T12:42:40.133Z,17.70
2019-06-26T12:45:10.523Z,17.73
2019-06-26T12:47:39.847Z,17.73
2019-06-26T12:50:09.710Z,17.74
2019-06-26T12:52:38.912Z,17.74
2019-06-26T12:55:08.175Z,17.77
2019-06-26T12:57:37.485Z,17.82
2019-06-26T13:00:07.831Z,17.85
2019-06-26T13:02:37.116Z,17.87
2019-06-26T13:05:06.776Z,17.88
2019-06-26T13:07:36.253Z,17.91
2019-06-26T13:10:07.578Z,17.87
2019-06-26T13:12:37.456Z,17.84
2019-06-26T13:15:07.533Z,17.86
2019-06-26T13:17:37.060Z,17.90
2019-06-26T13:20:09.694Z,17.91
2019-06-26T13:22:37.881Z,17.88
2019-06-26T13:25:07.318Z,17.89
2019-06-26T13:27:36.934Z,17.89
2019-06-26T13:30:07.228Z,17.91
2019-06-26T13:32:36.925Z,17.90
2019-06-26T13:35:06.570Z,17.89
2019-06-26T13:37:35.783Z,17.89
2019-06-26T13:40:06.303Z,17.89
2019-06-26T13:42:35.807Z,17.87
2019-06-26T13:45:05.374Z,17.84
2019-06-26T13:47:34.615Z,17.81
2019-06-26T13:50:04.217Z,17.77
2019-06-26T13:52:33.446Z,17.77
2019-06-26T13:55:02.675Z,17.77
2019-06-26T13:57:32.108Z,17.72
2019-06-26T14:00:01.330Z,17.70
2019-06-26T14:02:30.565Z,17.67
2019-06-26T14:05:00.591Z,17.67
2019-06-26T14:07:29.753Z,17.68
2019-06-26T14:09:58.973Z,17.69
2019-06-26T14:12:28.447Z,17.71
2019-06-26T14:14:58.382Z,17.73
2019-06-26T14:17:27.782Z,17.74
2019-06-26T14:19:57.155Z,17.79
2019-06-26T14:22:26.393Z,17.84
2019-06-26T14:24:56.817Z,17.14
2019-06-26T14:27:26.163Z,17.92
2019-06-26T14:29:55.400Z,17.99
2019-06-26T14:32:24.778Z,18.04
2019-06-26T14:34:54.462Z,18.12
2019-06-26T14:37:23.688Z,18.11
2019-06-26T14:39:52.935Z,18.07
2019-06-26T14:42:22.625Z,18.06
2019-06-26T14:44:52.808Z,18.00
2019-06-26T14:47:22.526Z,17.96
2019-06-26T14:49:51.891Z,17.92
2019-06-26T14:52:23.268Z,17.84
2019-06-26T14:54:52.593Z,17.86
2019-06-26T14:57:25.730Z,17.88
2019-06-26T14:59:53.029Z,17.87
2019-06-26T15:02:22.276Z,17.86
2019-06-26T15:04:52.028Z,17.86
2019-06-26T15:07:21.355Z,17.82
2019-06-26T15:09:50.662Z,17.78
2019-06-26T15:12:23.050Z,17.84
2019-06-26T15:14:54.583Z,17.90
2019-06-26T15:17:24.051Z,17.99
2019-06-26T15:19:53.716Z,18.04
2019-06-26T15:22:23.039Z,18.04
2019-06-26T15:24:54.724Z,18.07
2019-06-26T15:27:24.029Z,18.11
2019-06-26T15:29:55.786Z,18.21
2019-06-26T15:32:25.289Z,18.38
2019-06-26T15:34:54.739Z,18.64
2019-06-26T15:37:24.340Z,18.92
2019-06-26T15:39:53.528Z,19.21
2019-06-26T15:42:23.143Z,19.45
2019-06-26T15:44:52.551Z,19.67
2019-06-26T15:47:21.747Z,19.82
2019-06-26T15:49:51.170Z,19.80
2019-06-26T15:52:23.016Z,19.05
2019-06-26T15:54:52.232Z,19.60
2019-06-26T15:57:22.315Z,19.48
2019-06-26T15:59:51.551Z,19.42
2019-06-26T16:02:21.967Z,19.41
2019-06-26T16:04:51.704Z,19.37
2019-06-26T16:07:20.962Z,19.33
2019-06-26T16:09:50.175Z,19.31
2019-06-26T16:12:20.130Z,19.27
2019-06-26T16:14:49.375Z,19.21
2019-06-26T16:17:25.119Z,19.14
2019-06-26T16:19:56.599Z,19.20
2019-06-26T16:22:32.153Z,19.26
2019-06-26T16:24:59.428Z,19.27
2019-06-26T16:27:28.726Z,19.32
2019-06-26T16:29:57.931Z,19.42
2019-06-26T16:32:27.205Z,19.48
2019-06-26T16:34:56.538Z,19.47
2019-06-26T16:37:26.095Z,19.50
2019-06-26T16:39:55.415Z,19.50
2019-06-26T16:42:24.811Z,19.46
2019-06-26T16:44:54.059Z,19.42
2019-06-26T16:47:23.413Z,19.35
2019-06-26T16:49:52.738Z,19.27
2019-06-26T16:52:21.954Z,19.21
2019-06-26T16:54:51.458Z,19.21
2019-06-26T16:57:20.783Z,19.23
2019-06-26T17:00:05.059Z,19.24
2019-06-26T17:02:23.307Z,19.16
2019-06-26T17:04:52.569Z,19.06
2019-06-26T17:07:21.775Z,19.02
2019-06-26T17:09:51.619Z,19.04
2019-06-26T17:12:20.880Z,19.01
2019-06-26T17:14:50.235Z,18.98
2019-06-26T17:17:19.734Z,18.94
2019-06-26T17:19:48.951Z,18.91
2019-06-26T17:22:18.175Z,18.88
2019-06-26T17:24:47.633Z,18.85
2019-06-26T17:27:16.871Z,18.85
2019-06-26T17:29:46.106Z,18.78
2019-06-26T17:32:15.550Z,18.72
2019-06-26T17:34:44.770Z,18.65
2019-06-26T17:37:14.008Z,18.62
2019-06-26T17:39:43.493Z,18.60
2019-06-26T17:42:12.724Z,18.59
2019-06-26T17:44:41.960Z,18.63
2019-06-26T17:47:11.361Z,18.68
2019-06-26T17:49:40.749Z,18.78
2019-06-26T17:52:09.984Z,18.88
2019-06-26T17:54:39.307Z,18.97
2019-06-26T17:57:08.640Z,19.05
2019-06-26T17:59:37.861Z,19.09
2019-06-26T18:02:07.354Z,19.13
2019-06-26T18:04:36.554Z,19.16
2019-06-26T18:07:05.787Z,19.13
2019-06-26T18:09:35.551Z,19.11
2019-06-26T18:12:04.764Z,19.05
2019-06-26T18:14:33.992Z,18.99
2019-06-26T18:17:03.452Z,18.92
2019-06-26T18:19:32.668Z,18.80
2019-06-26T18:22:02.043Z,18.72
2019-06-26T18:24:37.344Z,18.70
2019-06-26T18:27:12.440Z,18.67
2019-06-26T18:29:46.829Z,18.61
2019-06-26T18:32:19.470Z,18.55
2019-06-26T18:35:03.249Z,18.49
2019-06-26T18:37:40.543Z,18.44
2019-06-26T18:40:12.361Z,18.34
2019-06-26T18:42:41.584Z,18.27
2019-06-26T18:45:13.149Z,18.19
2019-06-26T18:47:42.689Z,18.12
2019-06-26T18:50:12.165Z,18.03
2019-06-26T18:52:45.941Z,17.99
2019-06-26T18:55:42.898Z,17.91
2019-06-26T18:58:23.013Z,17.84
2019-06-26T19:01:06.943Z,17.77
2019-06-26T19:03:40.474Z,17.73
2019-06-26T19:06:19.502Z,17.70
2019-06-26T19:08:57.004Z,17.71
2019-06-26T19:11:28.842Z,17.68
2019-06-26T19:14:01.737Z,17.63
2019-06-26T19:16:32.284Z,17.59
2019-06-26T19:19:05.482Z,17.56
2019-06-26T19:21:37.575Z,17.51
2019-06-26T19:24:10.694Z,17.51
2019-06-26T19:26:40.446Z,17.53
2019-06-26T19:29:09.687Z,17.57
2019-06-26T19:31:38.917Z,17.60
2019-06-26T19:34:08.233Z,17.61
2019-06-26T19:36:49.675Z,17.61
2019-06-26T19:39:08.500Z,17.57
2019-06-26T19:41:37.827Z,17.53
2019-06-26T19:44:08.970Z,17.47
2019-06-26T19:46:41.693Z,17.43
2019-06-26T19:49:09.091Z,17.39
2019-06-26T19:51:39.674Z,17.36
2019-06-26T19:54:22.912Z,17.37
2019-06-26T19:56:40.248Z,17.39
2019-06-26T19:59:10.455Z,17.25
2019-06-26T20:01:39.676Z,17.42
2019-06-26T20:04:09.175Z,17.42
2019-06-26T20:06:38.417Z,17.42
2019-06-26T20:09:07.793Z,17.44
2019-06-26T20:11:37.253Z,17.42
2019-06-26T20:14:06.539Z,17.39
2019-06-26T20:16:35.757Z,17.36
2019-06-26T20:19:05.075Z,17.35
2019-06-26T20:21:34.618Z,17.33
2019-06-26T20:24:03.882Z,17.31
2019-06-26T20:26:33.318Z,17.27
2019-06-26T20:29:02.789Z,17.25
2019-06-26T20:31:32.427Z,17.24
2019-06-26T20:34:01.849Z,17.24
2019-06-26T20:36:31.115Z,17.23
2019-06-26T20:39:00.444Z,17.25
2019-06-26T20:41:29.872Z,17.25
2019-06-26T20:43:59.512Z,17.26
2019-06-26T20:46:28.964Z,17.26
2019-06-26T20:48:58.274Z,17.27
2019-06-26T20:51:27.646Z,17.29
2019-06-26T20:53:56.899Z,17.29
2019-06-26T20:56:26.411Z,17.29
2019-06-26T20:58:56.629Z,17.29
2019-06-26T21:01:25.889Z,17.26
2019-06-26T21:03:55.426Z,17.27
2019-06-26T21:06:24.676Z,17.27
2019-06-26T21:08:53.923Z,17.26
2019-06-26T21:11:23.320Z,17.24
2019-06-26T21:13:52.679Z,17.24
2019-06-26T21:16:21.904Z,17.23
2019-06-26T21:18:51.246Z,17.19
2019-06-26T21:21:21.598Z,17.22
2019-06-26T21:23:50.839Z,17.19
2019-06-26T21:26:20.243Z,17.16
2019-06-26T21:28:49.507Z,17.13
2019-06-26T21:31:18.751Z,17.09
2019-06-26T21:33:48.239Z,17.03
2019-06-26T21:36:17.513Z,16.96
2019-06-26T21:38:46.700Z,16.93
2019-06-26T21:41:16.004Z,16.88
2019-06-26T21:43:45.288Z,16.84
2019-06-26T21:46:14.517Z,16.80
2019-06-26T21:48:43.811Z,16.79
2019-06-26T21:51:13.099Z,16.77
2019-06-26T21:53:43.125Z,16.74
2019-06-26T21:56:12.659Z,16.72
2019-06-26T21:58:42.006Z,16.70
2019-06-26T22:01:11.220Z,16.68
2019-06-26T22:03:40.662Z,16.65
2019-06-26T22:06:10.015Z,16.63
2019-06-26T22:08:39.228Z,16.60
2019-06-26T22:11:09.284Z,16.55
2019-06-26T22:13:38.549Z,16.48
2019-06-26T22:16:07.783Z,16.44
2019-06-26T22:18:37.181Z,16.40
2019-06-26T22:21:06.589Z,16.38
2019-06-26T22:23:35.808Z,16.39
2019-06-26T22:26:05.700Z,16.42
2019-06-26T22:28:34.976Z,16.48
2019-06-26T22:31:04.198Z,16.54
2019-06-26T22:33:33.702Z,16.60
2019-06-26T22:36:03.274Z,16.62
2019-06-26T22:38:32.510Z,16.66
2019-06-26T22:41:01.910Z,16.70
2019-06-26T22:43:31.188Z,16.70
2019-06-26T22:46:00.405Z,16.72
2019-06-26T22:48:29.915Z,16.72
2019-06-26T22:50:59.331Z,16.72
2019-06-26T22:53:28.556Z,16.72
2019-06-26T22:56:07.422Z,16.72
2019-06-26T22:58:28.996Z,16.71
2019-06-26T23:00:58.359Z,16.70
2019-06-26T23:03:27.976Z,16.70
2019-06-26T23:05:57.317Z,16.71
2019-06-26T23:08:26.610Z,16.69
2019-06-26T23:10:55.949Z,16.68
2019-06-26T23:13:25.844Z,16.67
2019-06-26T23:15:55.073Z,16.65
2019-06-26T23:18:24.460Z,16.63
2019-06-26T23:20:53.794Z,16.61
2019-06-26T23:23:23.036Z,16.58
2019-06-26T23:25:52.379Z,16.55
2019-06-26T23:28:21.946Z,16.54
2019-06-26T23:30:51.221Z,16.52
2019-06-26T23:33:20.978Z,16.49
2019-06-26T23:35:50.332Z,16.45
2019-06-26T23:38:19.718Z,16.43
2019-06-26T23:40:49.060Z,16.40
2019-06-26T23:43:18.322Z,16.38
2019-06-26T23:45:47.603Z,16.33
2019-06-26T23:48:17.135Z,16.29
2019-06-26T23:50:46.687Z,16.24
2019-06-26T23:53:16.289Z,16.20
2019-06-26T23:55:45.702Z,16.12
2019-06-26T23:58:15.023Z,16.05
